Albany, Iowa
Current Conditions -  °F | °C
As of 11:55 PM on Thursday 27 Nov 2014 (Local Time) from KOLZ Reporting Station
Light Snow Light Snow  
Wind Chill: -1°   Ceiling: 3100
Heat Index: 12°   Visibility: 7mi
Dew Point:   Wind: 10mph
Humidity: 67%   Direction: 150°SSE
Pressure: 30.3"   Gusts: NA
Location:  42.8663°N, 91.8396°W
Report Text: KOLZ 280555Z AUTO 15009KT 7SM -SN FEW010 SCT025 BKN031 M11/M16 A3030 RMK AO2
Loading
Personal Weather Stations






























Interactive Weather Map New forecast layout! Learn more

10-Day Weather Forecast

Advertisements
Track Severe Weather on mobile